Flight Track Log - Related Links

Times and Time Zones

All times are in EDT time to prevent confusion due to time zone crossing. See the FLG3388 flight status page for this flight to view local times or setup timezone preferences in your user account.

Time Position Orientation Groundspeed Altitude Reporting Facility
EDT Latitude Longitude Course Direction KTS MPH feet Rate Location/Type
Wed 10:25:28 AM 44.9000 -93.2667 152° Southeast 181 208 2,500  Level Minneapolis TRACON
Wed 10:25:58 AM 44.8958 -93.2989 260° West 190 219 3,100 1,565 Climbing Minneapolis Center
Wed 10:27:00 AM 44.8725 -93.3719 246° West 234 269 4,900 2,419 Climbing Minneapolis Center
Wed 10:28:00 AM 44.4520 -93.4045 152° Southeast  Level Estimated
Wed 10:28:02 AM 44.7919 -93.3594 174° South 265 305 8,100  Level Minneapolis Center
Wed 10:29:00 AM 44.3445 -93.4498 157° South  Level Estimated
Wed 10:29:04 AM 44.7292 -93.3078 150° Southeast 269 310 10,600  Level Minneapolis Center
Wed 10:30:00 AM 44.2370 -93.4949 152° Southeast  Level Estimated
Wed 10:30:06 AM 44.6558 -93.2492 150° Southeast 321 369 12,300  Level Minneapolis Center
Wed 10:31:00 AM 44.1290 -93.5400 152° Southeast  Level Estimated
Wed 10:31:08 AM 44.5803 -93.1853 149° Southeast 322 371 14,700  Level Minneapolis Center
Wed 10:32:10 AM 44.4828 -93.1050 150° Southeast 341 392 17,100 2,049 Climbing Minneapolis Center
Wed 10:33:11 AM 44.3972 -93.0347 150° Southeast 357 411 18,900 1,707 Climbing Minneapolis Center
Wed 10:34:13 AM 44.3083 -92.9628 150° Southeast 372 428 20,600 1,742 Climbing Minneapolis Center
Wed 10:35:15 AM 44.2161 -92.8931 152° Southeast 378 435 22,500 1,645 Climbing Minneapolis Center
Wed 10:36:17 AM 44.1197 -92.8267 154° Southeast 387 445 24,000 1,597 Climbing Minneapolis Center
Wed 10:37:19 AM 44.0019 -92.7461 154° Southeast 395 455 25,800 1,500 Climbing Minneapolis Center
Wed 10:38:21 AM 43.9008 -92.6789 154° Southeast 403 464 27,100 1,306 Climbing Minneapolis Center
Wed 10:39:23 AM 43.8086 -92.6136 153° Southeast 413 475 28,500 1,344 Climbing Minneapolis Center
Wed 10:40:26 AM 43.7003 -92.5828 168° South 402 463 29,900 1,392 Climbing Minneapolis Center
Wed 10:41:28 AM 43.5678 -92.5611 173° South 402 463 31,400 1,210 Climbing Minneapolis Center
Wed 10:42:30 AM 43.4572 -92.5436 173° South 403 464 32,400 823 Climbing Minneapolis Center
Wed 10:43:32 AM 43.3428 -92.5256 173° South 415 478 33,100 823 Climbing Minneapolis Center
Wed 10:44:34 AM 43.2267 -92.5075 174° South 423 487 34,100 878 Climbing Minneapolis Center
Wed 10:45:35 AM 43.0864 -92.4844 173° South 429 494 34,900 780 Climbing Minneapolis Center
Wed 10:46:37 AM 42.9694 -92.4653 173° South 430 495 35,700 726 Climbing Minneapolis Center
Wed 10:47:39 AM 42.8514 -92.4475 174° South 432 497 36,400 629 Climbing Minneapolis Center
Wed 10:48:41 AM 42.7314 -92.4286 173° South 438 504 37,000 290 Climbing Minneapolis Center
Wed 10:49:43 AM 42.6108 -92.4094 173° South 442 509 37,000  Level Minneapolis Center
Wed 10:50:45 AM 42.4667 -92.4064 179° South 438 504 37,000  Level Minneapolis Center
Wed 10:51:47 AM 42.3494 -92.4164 184° South 430 495 37,000  Level Minneapolis Center
Wed 10:52:49 AM 42.2317 -92.4258 183° South 429 494 37,000  Level Minneapolis Center
Wed 10:53:51 AM 42.1144 -92.4358 184° South 429 494 37,000  Level Minneapolis Center
Wed 10:54:23 AM 42.0425 -92.4408 183° South 431 496 37,000  Level Chicago Center
Wed 10:55:25 AM 41.9244 -92.4514 184° South 432 497 37,000  Level Chicago Center
Wed 10:56:27 AM 41.8069 -92.4592 183° South 429 494 37,000  Level Chicago Center
Wed 10:57:29 AM 41.6683 -92.4708 184° South 423 487 37,000  Level Chicago Center
Wed 10:58:30 AM 41.5519 -92.4806 184° South 422 486 37,000  Level Chicago Center
Wed 10:59:32 AM 41.4347 -92.4906 184° South 424 488 37,000  Level Chicago Center
Wed 11:00:34 AM 41.3217 -92.4997 183° South 416 479 37,000  Level Chicago Center
Wed 11:01:36 AM 41.2075 -92.5069 183° South 412 474 37,000  Level Chicago Center
Wed 11:02:38 AM 41.0692 -92.5197 184° South 416 479 37,000  Level Chicago Center
Wed 11:03:40 AM 40.9539 -92.5278 183° South 417 480 37,000  Level Chicago Center
Wed 11:04:42 AM 40.8378 -92.5361 183° South 421 484 37,000  Level Chicago Center
Wed 11:05:43 AM 40.7194 -92.5456 183° South 426 490 37,000  Level Chicago Center
Wed 11:06:37 AM 40.6019 -92.5539 183° South 426 490 37,000 -155 Level Kansas City Center
Wed 11:07:39 AM 40.4794 -92.5719 186° South 424 488 36,700 -387 Descending Kansas City Center
Wed 11:08:41 AM 40.3808 -92.6414 208° Southwest 407 468 36,200 -339 Descending Kansas City Center
Wed 11:09:43 AM 40.2994 -92.7178 216° Southwest 398 458 36,000 -97 Descending Kansas City Center
Wed 11:10:45 AM 40.1953 -92.8081 214° Southwest 397 457 36,000  Level Kansas City Center
Wed 11:11:47 AM 40.1092 -92.8853 214° Southwest 393 452 36,000  Level Kansas City Center
Wed 11:12:49 AM 40.0158 -92.9694 215° Southwest 394 453 36,000  Level Kansas City Center
Wed 11:13:51 AM 39.9264 -93.0481 214° Southwest 392 451 36,000  Level Kansas City Center
Wed 11:14:53 AM 39.8194 -93.1428 214° Southwest 391 450 36,000  Level Kansas City Center
Wed 11:15:55 AM 39.7303 -93.2225 215° Southwest 392 451 36,000  Level Kansas City Center
Wed 11:16:57 AM 39.6406 -93.3022 214° Southwest 392 451 36,000  Level Kansas City Center
Wed 11:17:59 AM 39.5508 -93.3803 214° Southwest 393 452 36,000  Level Kansas City Center
Wed 11:19:01 AM 39.4603 -93.4600 214° Southwest 394 453 36,000  Level Kansas City Center
Wed 11:20:03 AM 39.3525 -93.5583 215° Southwest 398 458 36,000  Level Kansas City Center
Wed 11:21:04 AM 39.2703 -93.6300 214° Southwest 397 457 36,000  Level Kansas City Center
Wed 11:22:06 AM 39.1678 -93.7200 214° Southwest 398 458 36,000  Level Kansas City Center
Wed 11:23:08 AM 39.0792 -93.7975 214° Southwest 400 460 36,000  Level Kansas City Center
Wed 11:24:11 AM 38.9747 -93.8881 214° Southwest 403 464 36,000  Level Kansas City Center
Wed 11:25:13 AM 38.8856 -93.9647 214° Southwest 402 463 36,000  Level Kansas City Center
Wed 11:26:15 AM 38.7806 -94.0542 214° Southwest 404 465 36,000  Level Kansas City Center
Wed 11:27:17 AM 38.6914 -94.1308 214° Southwest 401 461 36,000  Level Kansas City Center
Wed 11:28:19 AM 38.5881 -94.2192 214° Southwest 399 459 36,000  Level Kansas City Center
Wed 11:29:21 AM 38.5006 -94.2933 214° Southwest 395 455 36,000  Level Kansas City Center
Wed 11:30:23 AM 38.4131 -94.3669 213° Southwest 394 453 36,000  Level Kansas City Center
Wed 11:31:25 AM 38.3111 -94.4544 214° Southwest 394 453 36,000  Level Kansas City Center
Wed 11:32:27 AM 38.2208 -94.5206 210° Southwest 391 450 36,000  Level Kansas City Center
Wed 11:33:29 AM 38.1094 -94.5919 207° Southwest 399 459 36,000  Level Kansas City Center
Wed 11:34:31 AM 38.0153 -94.6517 207° Southwest 396 456 36,000  Level Kansas City Center
Wed 11:35:33 AM 37.9039 -94.7231 207° Southwest 400 460 36,000  Level Kansas City Center
Wed 11:36:35 AM 37.8078 -94.7861 207° Southwest 403 464 36,000  Level Kansas City Center
Wed 11:37:37 AM 37.6953 -94.8567 206° Southwest 404 465 36,000  Level Kansas City Center
Wed 11:38:39 AM 37.5997 -94.9175 207° Southwest 408 470 36,000  Level Kansas City Center
Wed 11:39:41 AM 37.4961 -94.9831 207° Southwest 413 475 36,000  Level Kansas City Center
Wed 11:40:43 AM 37.3922 -95.0481 206° Southwest 417 480 36,000  Level Kansas City Center
Wed 11:41:45 AM 37.2692 -95.1258 207° Southwest 413 475 36,000  Level Kansas City Center
Wed 11:42:48 AM 37.1667 -95.1886 206° Southwest 411 473 36,000 194 Level Kansas City Center
Wed 11:43:49 AM 37.0644 -95.2528 207° Southwest 411 473 36,400 683 Climbing Kansas City Center
Wed 11:44:51 AM 36.9633 -95.3158 206° Southwest 406 467 37,400 774 Climbing Kansas City Center
Wed 11:45:53 AM 36.8622 -95.3783 206° Southwest 407 468 38,000 290 Climbing Kansas City Center
Wed 11:46:55 AM 36.7611 -95.4419 207° Southwest 407 468 38,000  Level Kansas City Center
Wed 11:47:57 AM 36.6378 -95.5175 206° Southwest 411 473 38,000  Level Kansas City Center
Wed 11:48:59 AM 36.5339 -95.5811 206° Southwest 411 473 38,000  Level Kansas City Center
Wed 11:50:01 AM 36.4319 -95.6431 206° Southwest 408 470 38,000  Level Kansas City Center
Wed 11:51:03 AM 36.3311 -95.7047 206° Southwest 405 466 38,000  Level Kansas City Center
Wed 11:52:05 AM 36.2181 -95.7731 206° Southwest 402 463 38,000  Level Kansas City Center
Wed 11:53:07 AM 36.1122 -95.8169 199° South 402 463 38,000  Level Kansas City Center
Wed 11:54:09 AM 36.0042 -95.8539 195° South 403 464 38,000  Level Kansas City Center
Wed 11:55:11 AM 35.8964 -95.8917 196° South 403 464 38,000  Level Kansas City Center
Wed 11:56:13 AM 35.7875 -95.9303 196° South 407 468 38,000  Level Kansas City Center
Wed 11:57:15 AM 35.6789 -95.9678 196° South 406 467 38,000  Level Kansas City Center
Wed 11:58:02 AM 35.5714 -96.0050 196° South 411 473 38,000  Level Fort Worth Center
Wed 11:59:02 AM 35.4614 -96.0400 195° South 411 473 38,000  Level Fort Worth Center
Wed 12:00:02 PM 35.3533 -96.0797 197° South 411 473 38,000  Level Fort Worth Center
Wed 12:01:02 PM 35.2431 -96.1172 196° South 416 479 38,000  Level Fort Worth Center
Wed 12:02:02 PM 35.1308 -96.1569 196° South 416 479 38,000  Level Fort Worth Center
Wed 12:03:02 PM 35.0167 -96.1967 196° South 416 479 38,000  Level Fort Worth Center
Wed 12:04:02 PM 34.9086 -96.2336 196° South 411 473 38,000  Level Fort Worth Center
Wed 12:05:02 PM 34.7942 -96.2706 195° South 416 479 38,000  Level Fort Worth Center
Wed 12:06:02 PM 34.6797 -96.3100 196° South 416 479 38,000  Level Fort Worth Center
Wed 12:07:02 PM 34.5675 -96.3469 195° South 416 479 38,000  Level Fort Worth Center
Wed 12:08:02 PM 34.4531 -96.3861 196° South 421 484 38,000  Level Fort Worth Center
Wed 12:09:02 PM 34.3406 -96.4275 197° South 421 484 38,000  Level Fort Worth Center
Wed 12:10:02 PM 34.2261 -96.4667 196° South 427 491 38,000  Level Fort Worth Center
Wed 12:11:02 PM 34.1117 -96.5028 195° South 427 491 38,000  Level Fort Worth Center
Wed 12:12:02 PM 33.9972 -96.5442 197° South 427 491 38,000  Level Fort Worth Center
Wed 12:13:02 PM 33.8806 -96.5803 194° South 432 497 38,000  Level Fort Worth Center
Wed 12:14:02 PM 33.7681 -96.6189 196° South 426 490 38,000  Level Fort Worth Center
Wed 12:15:02 PM 33.6661 -96.6522 195° South 426 490 38,000  Level Fort Worth Center
Wed 12:16:02 PM 33.5369 -96.6958 196° South 434 499 38,000  Level Fort Worth Center
Wed 12:17:02 PM 33.4328 -96.7289 195° South 434 499 38,000  Level Fort Worth Center
Wed 12:18:02 PM 33.3036 -96.7722 196° South 434 499 38,000  Level Fort Worth Center
Wed 12:19:02 PM 33.1994 -96.8078 196° South 434 499 38,000  Level Fort Worth Center
Wed 12:20:02 PM 33.0700 -96.8508 196° South 439 505 38,000  Level Fort Worth Center
Wed 12:21:02 PM 32.9556 -96.8836 194° South 433 498 38,000  Level Fort Worth Center
Wed 12:22:02 PM 32.8344 -96.9189 194° South 433 498 38,000  Level Fort Worth Center
Wed 12:23:02 PM 32.7197 -96.9542 195° South 433 498 38,000  Level Fort Worth Center
Wed 12:24:02 PM 32.6008 -96.9892 194° South 433 498 38,000  Level Fort Worth Center
Wed 12:25:02 PM 32.4967 -97.0192 194° South 433 498 38,000  Level Fort Worth Center
Wed 12:26:02 PM 32.3672 -97.0592 195° South 428 493 38,000  Level Fort Worth Center
Wed 12:27:02 PM 32.2631 -97.0892 194° South 433 498 38,000  Level Fort Worth Center
Wed 12:28:02 PM 32.1336 -97.1289 195° South 433 498 38,000  Level Fort Worth Center
Wed 12:29:02 PM 32.0147 -97.1658 195° South 438 504 38,000  Level Fort Worth Center
Wed 12:30:02 PM 31.8917 -97.2006 193° South 449 517 38,000  Level Fort Worth Center
Wed 12:31:02 PM 31.7686 -97.2375 194° South 449 517 38,000  Level Fort Worth Center
Wed 12:33:12 PM 31.5008 -97.2483 182° South 481 554 38,000  Level Houston Center
Wed 12:34:14 PM 31.3486 -97.2272 173° South 477 549 38,000  Level Houston Center
Wed 12:35:17 PM 31.2158 -97.2164 176° South 474 545 38,000 -432 Level Houston Center
Wed 12:36:19 PM 31.0936 -97.2547 195° South 455 524 37,100 -1,548 Descending Houston Center
Wed 12:37:21 PM 30.9742 -97.2989 198° South 455 524 34,800 -2,371 Descending Houston Center
Wed 12:38:23 PM 30.8372 -97.3539 199° South 456 525 32,200 -2,371 Descending Houston Center
Wed 12:39:25 PM 30.7178 -97.3989 198° South 452 520 29,900 -2,274 Descending Houston Center
Wed 12:40:27 PM 30.5989 -97.4447 198° South 446 513 27,500 -2,226 Descending Houston Center
Wed 12:41:29 PM 30.4883 -97.4886 199° South 424 488 25,300 -2,129 Descending Houston Center
Wed 12:42:31 PM 30.3828 -97.5283 198° South 399 459 23,100 -2,129 Descending Houston Center
Wed 12:43:33 PM 30.2711 -97.5317 181° South 402 463 20,900 -2,081 Descending Houston Center
Wed 12:44:35 PM 30.1636 -97.5411 184° South 387 445 18,800 -1,907 Descending Houston Center
Wed 12:45:20 PM 30.1117 -97.6097 229° Southwest 328 377 17,500 -1,742 Descending Houston Center
Wed 12:45:37 PM 30.0853 -97.6386 223° Southwest 344 396 17,000 -1,612 Descending Houston Center
Wed 12:46:27 PM 30.0306 -97.7025 225° Southwest 339 390 15,700 -1,514 Descending Houston Center
Wed 12:47:28 PM 29.9608 -97.7861 226° Southwest 381 438 14,200 -1,266 Descending Houston Center
Wed 12:48:35 PM 29.8922 -97.8817 230° Southwest 366 421 13,000 -1,091 Descending Houston Center
Wed 12:49:29 PM 29.8506 -97.9739 243° Southwest 355 409 12,000 -1,286 Descending Houston Center
Wed 12:49:45 PM 29.8372 -98.0050 244° Southwest 351 404 11,500 -1,164 Descending Houston Center
Wed 12:50:36 PM 29.8061 -98.0806 245° Southwest 307 353 10,700 -1,274 Descending Houston Center
Wed 12:51:38 PM 29.7717 -98.1594 243° Southwest 267 307 9,100 -1,574 Descending Houston Center
Wed 12:52:38 PM 29.7389 -98.2358 244° Southwest 264 304 7,500 -1,565 Descending Houston Center
Wed 12:53:33 PM 29.7114 -98.3017 244° Southwest 250 288 6,100 -1,184 Descending Houston Center
Wed 12:53:54 PM 29.7008 -98.3267 244° Southwest 235 270 6,000 -98 Descending Houston Center
Wed 12:54:34 PM 29.6858 -98.3650 246° West 211 243 6,000  Level Houston Center
Wed 12:54:56 PM 29.6742 -98.3875 239° Southwest 216 249 6,000 -393 Level Houston Center
Wed 12:55:35 PM 29.6578 -98.4261 244° Southwest 214 246 5,600 -968 Descending Houston Center
Wed 12:55:58 PM 29.6514 -98.4567 256° West 222 255 5,000 -1,279 Descending Houston Center
Wed 12:56:36 PM 29.6747 -98.4961 304° West 247 284 4,300 -871 Descending Houston Center
Wed 12:57:00 PM 29.6892 -98.5197 305° West 238 274 4,100 -300 Descending Houston Center
Wed 12:57:36 PM 29.7139 -98.5564 308° West 233 268 4,000 -97 Descending Houston Center
Wed 12:58:02 PM 29.7269 -98.5767 307° West 228 262 4,000  Level Houston Center
Wed 12:58:43 PM 29.7531 -98.6167 307° West 219 252 4,000  Level Houston Center
Wed 12:59:04 PM 29.7614 -98.6394 293° West 220 253 4,000  Level Houston Center
Wed 12:59:38 PM 29.7447 -98.6658 234° Southwest 187 215 4,000  Level Houston Center
Wed 01:00:06 PM 29.7256 -98.6806 214° Southwest 189 217 4,000 -295 Level Houston Center
Wed 01:00:39 PM 29.7017 -98.6756 170° South 164 189 3,700 -871 Descending Houston Center
Wed 01:01:08 PM 29.6800 -98.6614 150° Southeast 164 189 3,100 -689 Descending Houston Center
Wed 01:01:40 PM 29.6631 -98.6442 139° Southeast 159 183 3,000 -97 Descending Houston Center
Wed 01:02:10 PM 29.6503 -98.6236 126° Southeast 159 183 3,000  Level Houston Center
Wed 01:02:40 PM 29.6342 -98.6044 134° Southeast 161 185 3,000  Level Houston Center
Wed 01:03:12 PM 29.6203 -98.5853 130° Southeast 161 185 3,000 -295 Level Houston Center
Wed 01:03:41 PM 29.6056 -98.5669 133° Southeast 161 185 2,700 -621 Descending Houston Center

Login

Don't have an account? Register now (free) for customized features, flight alerts, and more!